Avondale Estates, Georgia
Current Conditions -  °F | °C
As of 12:53 PM on Sunday 23 Nov 2014 (Local Time) from KPDK Reporting Station
Moderate Rain Moderate Rain  
Wind Chill: 50°   Ceiling: 500
Heat Index: 50°   Visibility: 1.5mi
Dew Point: 47°   Wind: 5mph
Humidity: 89%   Direction: NA
Pressure: 29.9"   Gusts: NA
Location:  33.77°N, 84.27°W
Report Text: KPDK 231753Z VRB04KT 1 1/2SM RA BR OVC005 10/08 A2990 RMK AO2 SFC VIS 2 RAB1657 SLP128 P0008 60038 T01000083 10100 20072 58034
Loading
Personal Weather Stations






























Interactive Weather Map New forecast layout! Learn more

10-Day Weather Forecast

Advertisements
Track Severe Weather on mobile